Time;durP1;ratioP1;P1;durP2;ratioP2;P2;SDS_P1;SDS_P2;PMS_P1;PMS_P2;Temp;Humidity;BMP_temperature;BMP_pressure;BME280_temperature;BME280_humidity;BME280_pressure;Samples;Min_cycle;Max_cycle;Signal;HPM_P1;HPM_P2
2021/06/24 00:00:04;;;;;;;6.43;1.10;;;16.70;70.80;;;;;;4707138;30;20049;-81
2021/06/24 00:02:31;;;;;;;2.90;0.85;;;16.70;70.80;;;;;;4735818;30;20375;-82
2021/06/24 00:04:58;;;;;;;3.00;1.15;;;16.70;70.80;;;;;;4709385;30;20087;-81
2021/06/24 00:07:25;;;;;;;4.25;1.52;;;16.60;70.80;;;;;;4704708;30;20138;-81
2021/06/24 00:09:52;;;;;;;2.05;0.73;;;16.60;70.90;;;;;;4721747;30;20083;-82
2021/06/24 00:12:21;;;;;;;2.95;1.10;;;16.50;71.00;;;;;;4720340;30;20059;-81
2021/06/24 00:14:48;;;;;;;2.38;0.80;;;16.50;71.10;;;;;;4733726;30;20514;-82
2021/06/24 00:17:15;;;;;;;4.63;1.08;;;16.60;71.10;;;;;;4742364;30;20097;-81
2021/06/24 00:19:42;;;;;;;2.78;0.95;;;16.50;71.10;;;;;;4712683;30;20071;-81
2021/06/24 00:22:09;;;;;;;3.17;0.90;;;16.50;71.20;;;;;;4705883;30;20049;-81
2021/06/24 00:24:36;;;;;;;2.58;0.93;;;16.50;71.20;;;;;;4720906;30;20075;-81
2021/06/24 00:27:03;;;;;;;1.80;0.70;;;16.50;71.30;;;;;;4732747;30;20055;-81
2021/06/24 00:29:30;;;;;;;2.15;1.02;;;16.40;71.20;;;;;;4731103;30;20052;-81
2021/06/24 00:32:00;;;;;;;2.70;0.77;;;16.40;71.30;;;;;;4721962;30;20045;-81
2021/06/24 00:34:27;;;;;;;3.90;1.10;;;16.40;71.40;;;;;;4741311;30;20057;-81
2021/06/24 00:36:54;;;;;;;2.38;1.00;;;16.30;71.40;;;;;;4708816;30;20468;-81
2021/06/24 00:39:21;;;;;;;3.20;1.10;;;16.30;71.40;;;;;;4687764;30;20049;-81
2021/06/24 00:41:50;;;;;;;3.53;1.30;;;16.30;71.40;;;;;;4721587;30;20475;-81
2021/06/24 00:44:17;;;;;;;2.35;1.08;;;16.30;71.50;;;;;;4725228;30;20695;-81
2021/06/24 00:46:44;;;;;;;4.45;1.10;;;16.30;71.50;;;;;;4711672;30;20053;-81
2021/06/24 00:49:12;;;;;;;2.42;1.10;;;16.30;71.50;;;;;;4717894;30;20573;-81
2021/06/24 00:51:39;;;;;;;2.15;1.00;;;16.30;71.50;;;;;;4719718;30;20106;-79
2021/06/24 00:54:06;;;;;;;1.73;0.90;;;16.30;71.50;;;;;;4736988;30;20048;-84
2021/06/24 00:56:33;;;;;;;3.20;1.10;;;16.30;71.50;;;;;;4706961;30;20382;-80
2021/06/24 00:59:04;;;;;;;1.92;1.30;;;16.30;71.50;;;;;;4723250;30;20047;-81
2021/06/24 01:01:34;;;;;;;3.47;1.70;;;16.30;71.50;;;;;;4725171;30;20140;-80
2021/06/24 01:04:01;;;;;;;4.80;1.10;;;16.30;71.50;;;;;;4737598;30;20521;-80
2021/06/24 01:06:28;;;;;;;2.75;1.10;;;16.20;71.50;;;;;;4709921;30;21850;-80
2021/06/24 01:08:56;;;;;;;3.25;1.20;;;16.20;71.60;;;;;;4702790;30;20052;-80
2021/06/24 01:11:23;;;;;;;4.40;1.05;;;16.20;72.20;;;;;;4671144;30;20487;-80
2021/06/24 01:13:52;;;;;;;2.30;1.10;;;16.20;71.60;;;;;;4712384;30;20053;-80
2021/06/24 01:16:19;;;;;;;2.97;1.23;;;16.20;71.70;;;;;;4683355;30;20064;-80
2021/06/24 01:18:48;;;;;;;2.40;1.10;;;16.20;71.70;;;;;;4689893;30;20320;-80
2021/06/24 01:21:16;;;;;;;2.67;1.23;;;16.20;71.70;;;;;;4686694;30;20523;-80
2021/06/24 01:23:44;;;;;;;2.20;1.10;;;16.10;71.80;;;;;;4702916;30;20049;-80
2021/06/24 01:26:14;;;;;;;2.85;0.90;;;16.10;71.90;;;;;;4701440;30;20052;-80
2021/06/24 01:28:42;;;;;;;1.63;1.00;;;16.20;71.80;;;;;;4693368;30;20042;-80
2021/06/24 01:31:10;;;;;;;3.45;0.95;;;16.20;71.80;;;;;;4700725;30;20498;-79
2021/06/24 01:33:37;;;;;;;3.45;0.90;;;16.20;71.80;;;;;;4705881;30;20041;-80
2021/06/24 01:36:06;;;;;;;3.70;1.20;;;16.20;71.90;;;;;;4690487;30;20379;-81
2021/06/24 01:38:38;;;;;;;2.50;1.00;;;16.20;72.00;;;;;;4703207;30;21067;-81
2021/06/24 01:41:22;;;;;;;3.15;1.20;;;16.10;72.00;;;;;;4705615;30;20139;-81
2021/06/24 01:43:50;;;;;;;2.35;1.25;;;16.10;72.10;;;;;;4723546;30;20136;-81
2021/06/24 01:46:17;;;;;;;5.10;1.88;;;16.10;72.20;;;;;;4720476;30;20045;-81
2021/06/24 01:48:44;;;;;;;2.15;0.95;;;16.10;72.20;;;;;;4704468;30;20390;-81
2021/06/24 01:51:11;;;;;;;4.80;1.50;;;16.00;72.20;;;;;;4720429;30;20045;-81
2021/06/24 01:53:38;;;;;;;2.42;1.27;;;16.00;72.30;;;;;;4695792;30;20080;-81
2021/06/24 01:56:07;;;;;;;2.92;1.33;;;16.00;72.30;;;;;;4719024;30;20486;-81
2021/06/24 01:58:35;;;;;;;4.28;1.50;;;16.00;72.30;;;;;;4703844;30;20124;-82
2021/06/24 02:01:21;;;;;;;4.45;1.50;;;16.00;72.30;;;;;;4702126;30;20159;-80
2021/06/24 02:04:07;;;;;;;3.13;1.13;;;16.00;72.40;;;;;;4693828;30;20398;-80
2021/06/24 02:06:34;;;;;;;3.15;1.10;;;16.00;72.40;;;;;;4722963;30;20428;-81
2021/06/24 02:09:13;;;;;;;2.15;1.10;;;16.00;72.40;;;;;;4700467;30;20080;-80
2021/06/24 02:11:43;;;;;;;1.98;1.10;;;16.00;72.30;;;;;;4689436;30;20053;-80
2021/06/24 02:14:10;;;;;;;2.60;1.00;;;16.00;72.30;;;;;;4654627;30;20450;-80
2021/06/24 02:16:38;;;;;;;3.50;1.20;;;16.00;72.40;;;;;;4701523;30;20396;-80
2021/06/24 02:19:05;;;;;;;1.88;1.05;;;16.10;72.30;;;;;;4705149;30;20056;-80
2021/06/24 02:22:00;;;;;;;2.53;1.08;;;16.00;72.30;;;;;;4704294;30;20070;-80
2021/06/24 02:24:30;;;;;;;2.38;1.00;;;16.00;72.40;;;;;;4690238;30;21651;-80
2021/06/24 02:27:01;;;;;;;3.55;1.00;;;16.00;72.80;;;;;;4709283;30;20049;-81
2021/06/24 02:30:08;;;;;;;3.42;1.35;;;16.00;72.50;;;;;;4626380;30;20137;-80
2021/06/24 02:32:37;;;;;;;3.85;1.13;;;16.00;72.50;;;;;;4617646;30;20044;-80
2021/06/24 02:35:14;;;;;;;1.70;0.90;;;16.00;72.50;;;;;;4649240;30;20053;-80
2021/06/24 02:38:18;;;;;;;2.83;1.42;;;16.00;72.50;;;;;;4700350;30;20084;-81
2021/06/24 02:40:54;;;;;;;3.87;1.20;;;15.90;72.50;;;;;;4712823;30;20062;-80
2021/06/24 02:43:22;;;;;;;3.22;1.45;;;15.90;72.60;;;;;;4701135;30;20072;-80
2021/06/24 02:45:50;;;;;;;3.08;1.35;;;15.90;72.80;;;;;;4713768;30;20041;-80
2021/06/24 02:48:24;;;;;;;6.85;1.27;;;15.90;72.70;;;;;;4699255;30;20081;-80
2021/06/24 02:50:52;;;;;;;3.95;1.40;;;15.80;72.80;;;;;;4697114;30;20073;-81
2021/06/24 02:53:19;;;;;;;8.05;2.05;;;15.80;72.80;;;;;;4682114;30;20140;-81
2021/06/24 02:55:49;;;;;;;5.90;1.30;;;15.80;72.90;;;;;;4696972;30;20057;-81
2021/06/24 02:58:21;;;;;;;;;;;15.80;72.90;;;;;;4713910;30;20048;-80
2021/06/24 03:01:14;;;;;;;2.77;1.30;;;15.80;72.90;;;;;;4693476;30;20368;-80
2021/06/24 03:03:56;;;;;;;3.27;0.97;;;15.70;73.10;;;;;;4693016;30;20378;-81
2021/06/24 03:06:23;;;;;;;3.63;1.58;;;15.70;73.10;;;;;;4703048;30;20060;-81
2021/06/24 03:08:52;;;;;;;2.53;1.25;;;15.70;73.10;;;;;;4732623;30;20049;-81
2021/06/24 03:11:25;;;;;;;3.00;1.10;;;15.70;73.10;;;;;;4696036;30;20065;-81
2021/06/24 03:13:54;;;;;;;3.75;1.38;;;15.70;73.20;;;;;;4705302;30;20123;-81
2021/06/24 03:16:43;;;;;;;6.82;1.60;;;15.70;73.20;;;;;;4707906;30;20119;-80
2021/06/24 03:19:17;;;;;;;2.72;1.17;;;15.70;73.20;;;;;;4704264;30;20451;-81
2021/06/24 03:21:58;;;;;;;3.83;1.40;;;15.70;73.10;;;;;;4715547;30;20111;-81
2021/06/24 03:24:30;;;;;;;;;;;15.70;73.10;;;;;;4705276;30;20168;-81
2021/06/24 03:26:59;;;;;;;2.95;1.60;;;15.70;73.10;;;;;;4714654;30;20447;-81
2021/06/24 03:29:27;;;;;;;4.78;1.45;;;15.60;73.30;;;;;;4691762;30;20044;-81
2021/06/24 03:31:54;;;;;;;2.33;0.90;;;15.60;73.30;;;;;;4682748;30;20521;-81
2021/06/24 03:34:28;;;;;;;5.72;1.25;;;15.60;73.40;;;;;;4707069;30;20494;-81
2021/06/24 03:36:57;;;;;;;2.33;1.25;;;15.70;73.50;;;;;;4694688;30;20049;-81
2021/06/24 03:39:31;;;;;;;3.63;1.60;;;15.70;73.40;;;;;;4713556;30;20052;-81
2021/06/24 03:41:59;;;;;;;2.63;1.35;;;15.70;73.40;;;;;;4686107;30;20076;-81
2021/06/24 03:44:28;;;;;;;2.60;1.20;;;15.60;73.40;;;;;;4721491;30;20382;-81
2021/06/24 03:46:55;;;;;;;2.00;1.20;;;15.70;73.60;;;;;;4699517;30;20053;-82
2021/06/24 03:49:23;;;;;;;2.53;1.33;;;15.60;73.50;;;;;;4728539;30;20044;-81
2021/06/24 03:51:50;;;;;;;3.42;1.38;;;15.60;73.60;;;;;;4706981;30;20048;-81
2021/06/24 03:54:18;;;;;;;2.63;1.23;;;15.60;73.70;;;;;;4723916;30;20062;-81
2021/06/24 03:56:45;;;;;;;2.22;1.33;;;15.60;73.70;;;;;;4723118;30;20037;-81
2021/06/24 03:59:17;;;;;;;3.05;1.13;;;15.50;73.70;;;;;;4739359;30;20037;-81
2021/06/24 04:01:48;;;;;;;1.80;0.93;;;15.50;73.70;;;;;;4723040;30;20495;-81
2021/06/24 04:04:15;;;;;;;2.20;1.05;;;15.60;73.70;;;;;;4707993;30;20083;-81
2021/06/24 04:06:47;;;;;;;2.58;1.10;;;15.60;73.70;;;;;;4706353;30;20514;-82
2021/06/24 04:09:14;;;;;;;3.42;1.27;;;15.60;73.70;;;;;;4722624;30;20072;-81
2021/06/24 04:11:42;;;;;;;6.88;1.73;;;15.60;73.70;;;;;;4721816;30;20052;-81
2021/06/24 04:14:32;;;;;;;5.20;0.93;;;15.60;73.60;;;;;;4705681;30;20060;-81
2021/06/24 04:17:17;;;;;;;2.30;1.23;;;15.60;73.70;;;;;;4744682;30;20056;-81
2021/06/24 04:19:46;;;;;;;2.47;1.40;;;15.60;73.60;;;;;;4708671;30;20414;-81
2021/06/24 04:22:13;;;;;;;4.80;1.55;;;15.60;73.80;;;;;;4717946;30;20048;-81
2021/06/24 04:24:58;;;;;;;2.60;1.27;;;15.70;73.70;;;;;;4708539;30;20139;-81
2021/06/24 04:27:25;;;;;;;3.53;1.25;;;15.70;73.70;;;;;;4713262;30;20053;-81
2021/06/24 04:29:53;;;;;;;2.03;1.13;;;15.70;73.70;;;;;;4705725;30;20052;-81
2021/06/24 04:32:20;;;;;;;3.60;1.50;;;15.70;73.60;;;;;;4720905;30;20041;-81
2021/06/24 04:34:47;;;;;;;2.60;1.20;;;15.70;73.60;;;;;;4733063;30;20418;-80
2021/06/24 04:37:22;;;;;;;2.78;1.30;;;15.70;73.70;;;;;;4709496;30;20044;-81
2021/06/24 04:39:49;;;;;;;5.05;1.05;;;15.70;73.60;;;;;;4721383;30;20060;-81
2021/06/24 04:42:20;;;;;;;2.60;0.93;;;15.70;73.70;;;;;;4696746;30;20131;-81
2021/06/24 04:45:16;;;;;;;2.22;1.05;;;15.80;73.70;;;;;;4698020;30;20531;-81
2021/06/24 04:47:53;;;;;;;2.10;1.05;;;15.80;73.60;;;;;;4719232;30;20060;-81
2021/06/24 04:50:21;;;;;;;2.70;1.10;;;15.80;73.50;;;;;;4698497;30;20052;-81
2021/06/24 04:52:53;;;;;;;2.72;1.00;;;15.80;73.50;;;;;;4707440;30;20474;-81
2021/06/24 04:55:41;;;;;;;2.78;0.90;;;15.80;74.20;;;;;;4738841;30;20582;-80
2021/06/24 04:58:16;;;;;;;5.47;1.27;;;15.80;73.60;;;;;;4726069;30;20106;-81
2021/06/24 05:01:21;;;;;;;1.83;0.82;;;15.80;73.60;;;;;;4667956;30;20090;-81
2021/06/24 05:04:07;;;;;;;2.13;1.10;;;15.80;73.50;;;;;;4653442;30;20073;-81
2021/06/24 05:06:35;;;;;;;3.45;1.58;;;15.80;73.40;;;;;;4711358;30;20122;-80
2021/06/24 05:09:04;;;;;;;2.65;1.13;;;15.80;73.40;;;;;;4721059;30;20555;-80
2021/06/24 05:11:34;;;;;;;1.95;1.10;;;15.90;73.50;;;;;;4703340;30;20510;-80
2021/06/24 05:14:01;;;;;;;2.60;1.40;;;15.90;73.40;;;;;;4712790;30;20468;-79
2021/06/24 05:16:29;;;;;;;2.10;1.10;;;15.90;73.40;;;;;;4703104;30;20037;-81
2021/06/24 05:18:56;;;;;;;2.15;1.10;;;16.00;73.30;;;;;;4716880;30;20077;-80
2021/06/24 05:21:26;;;;;;;3.72;0.90;;;16.00;73.20;;;;;;4687061;30;20048;-81
2021/06/24 05:23:55;;;;;;;2.42;1.10;;;16.10;73.20;;;;;;4709346;30;20044;-79
2021/06/24 05:26:43;;;;;;;2.75;1.20;;;16.10;73.10;;;;;;4715892;30;20053;-82
2021/06/24 05:30:21;;;;;;;2.40;1.20;;;16.10;73.00;;;;;;4732964;30;20055;-82
2021/06/24 05:32:55;;;;;;;5.20;1.23;;;16.20;73.10;;;;;;4728344;30;20067;-81
2021/06/24 05:35:26;;;;;;;2.38;1.10;;;16.20;73.10;;;;;;4730273;30;20045;-79
2021/06/24 05:37:54;;;;;;;3.50;1.48;;;16.30;73.00;;;;;;4714656;30;20115;-79
2021/06/24 05:40:22;;;;;;;2.38;1.42;;;16.20;72.90;;;;;;4733472;30;20118;-79
2021/06/24 05:42:49;;;;;;;3.63;1.73;;;16.30;73.00;;;;;;4725578;30;20052;-79
2021/06/24 05:45:17;;;;;;;2.78;1.38;;;16.20;72.90;;;;;;4730466;30;20083;-79
2021/06/24 05:47:47;;;;;;;3.92;1.50;;;16.20;73.00;;;;;;4716519;30;20432;-82
2021/06/24 05:50:15;;;;;;;2.95;1.23;;;16.30;72.90;;;;;;4687079;30;20049;-81
2021/06/24 05:52:42;;;;;;;3.25;1.63;;;16.30;72.90;;;;;;4719946;30;20072;-81
2021/06/24 05:55:10;;;;;;;4.22;1.40;;;16.30;72.90;;;;;;4734587;30;20045;-81
2021/06/24 05:57:38;;;;;;;3.20;1.70;;;16.30;72.90;;;;;;4737596;30;20491;-81
2021/06/24 06:00:06;;;;;;;3.15;1.42;;;16.20;72.90;;;;;;4710663;30;20053;-81
2021/06/24 06:02:40;;;;;;;3.78;1.52;;;16.20;73.10;;;;;;4721083;30;20074;-81
2021/06/24 06:05:08;;;;;;;2.85;1.30;;;16.20;73.00;;;;;;4718649;30;20573;-80
2021/06/24 06:07:35;;;;;;;4.22;1.80;;;16.30;73.00;;;;;;4717301;30;20053;-74
2021/06/24 06:10:02;;;;;;;2.85;1.40;;;16.40;72.90;;;;;;4704502;30;20084;-74
2021/06/24 06:12:29;;;;;;;4.00;1.85;;;16.40;72.90;;;;;;4713713;30;20056;-74
2021/06/24 06:14:59;;;;;;;3.60;1.75;;;16.50;72.90;;;;;;4700692;30;20061;-75
2021/06/24 06:17:29;;;;;;;;;;;16.60;72.70;;;;;;4698311;30;20448;-74
2021/06/24 06:19:56;;;;;;;3.95;1.45;;;16.60;72.60;;;;;;4729337;30;19965;-75
2021/06/24 06:22:23;;;;;;;2.60;1.25;;;16.60;72.50;;;;;;4698748;30;20080;-74
2021/06/24 06:24:50;;;;;;;5.50;1.50;;;16.70;72.40;;;;;;4684037;30;20052;-75
2021/06/24 06:27:17;;;;;;;4.50;1.35;;;16.70;72.20;;;;;;4700551;30;20088;-74
2021/06/24 06:29:44;;;;;;;5.15;1.65;;;16.70;72.10;;;;;;4699054;30;20406;-74
2021/06/24 06:32:11;;;;;;;3.58;1.30;;;16.80;72.20;;;;;;4699318;30;20574;-74
2021/06/24 06:34:38;;;;;;;2.58;1.52;;;16.80;72.10;;;;;;4700818;30;20053;-74
2021/06/24 06:37:05;;;;;;;2.42;1.38;;;16.90;72.00;;;;;;4714848;30;20583;-74
2021/06/24 06:39:32;;;;;;;6.57;1.88;;;16.90;71.90;;;;;;4686727;30;20494;-74
2021/06/24 06:41:59;;;;;;;2.67;1.73;;;17.00;71.80;;;;;;4720195;30;20064;-75
2021/06/24 06:44:26;;;;;;;3.33;1.08;;;17.00;71.70;;;;;;4711827;30;20044;-75
2021/06/24 06:46:53;;;;;;;2.95;1.42;;;17.10;71.60;;;;;;4690155;30;20049;-74
2021/06/24 06:49:20;;;;;;;3.03;1.55;;;17.10;71.60;;;;;;4725516;30;20132;-75
2021/06/24 06:51:47;;;;;;;3.65;1.60;;;17.20;71.50;;;;;;4734562;30;20053;-75
2021/06/24 06:54:14;;;;;;;3.05;1.60;;;17.20;71.40;;;;;;4684246;30;20048;-74
2021/06/24 06:56:45;;;;;;;3.30;1.50;;;17.20;71.20;;;;;;4700840;30;20060;-74
2021/06/24 06:59:13;;;;;;;3.40;1.20;;;17.30;71.10;;;;;;4705613;30;20045;-75
2021/06/24 07:01:40;;;;;;;3.13;1.70;;;17.40;71.00;;;;;;4709640;30;20449;-74
2021/06/24 07:04:07;;;;;;;5.78;1.75;;;17.40;70.80;;;;;;4696634;30;20064;-73
2021/06/24 07:06:34;;;;;;;4.18;2.03;;;17.40;70.70;;;;;;4715124;30;20048;-73
2021/06/24 07:09:01;;;;;;;3.33;1.52;;;17.50;70.60;;;;;;4712663;30;20529;-73
2021/06/24 07:11:28;;;;;;;3.42;1.60;;;17.50;70.40;;;;;;4714208;30;20057;-73
2021/06/24 07:13:55;;;;;;;3.00;1.30;;;17.60;70.30;;;;;;4718002;30;20082;-73
2021/06/24 07:16:23;;;;;;;3.13;1.25;;;17.60;70.10;;;;;;4707259;30;20490;-73
2021/06/24 07:18:50;;;;;;;3.85;1.25;;;17.70;69.80;;;;;;4729921;30;20056;-73
2021/06/24 07:21:17;;;;;;;2.45;1.20;;;17.70;69.90;;;;;;4723052;30;20099;-73
2021/06/24 07:23:44;;;;;;;5.28;1.40;;;17.70;69.70;;;;;;4723779;30;20055;-73
2021/06/24 07:26:16;;;;;;;4.53;1.52;;;17.80;69.50;;;;;;4688279;30;20119;-73
2021/06/24 07:28:43;;;;;;;1.88;1.17;;;17.80;69.40;;;;;;4735199;30;20055;-73
2021/06/24 07:31:10;;;;;;;3.17;1.30;;;17.80;69.30;;;;;;4731050;30;20126;-73
2021/06/24 07:33:37;;;;;;;2.95;1.13;;;17.90;69.20;;;;;;4707976;30;20118;-73
2021/06/24 07:36:05;;;;;;;3.88;1.10;;;18.00;69.80;;;;;;4707519;30;20052;-74
2021/06/24 07:38:32;;;;;;;3.75;1.30;;;18.10;68.90;;;;;;4706656;30;20048;-75
2021/06/24 07:40:59;;;;;;;2.95;1.38;;;18.20;68.60;;;;;;4721366;30;20044;-74
2021/06/24 07:43:26;;;;;;;2.38;1.23;;;18.30;68.50;;;;;;4706525;30;20081;-73
2021/06/24 07:46:02;;;;;;;2.60;1.02;;;18.30;68.20;;;;;;4730819;30;20049;-74
2021/06/24 07:48:29;;;;;;;2.40;1.17;;;18.40;68.00;;;;;;4719484;30;20099;-73
2021/06/24 07:50:56;;;;;;;2.60;1.00;;;18.50;68.00;;;;;;4722629;30;20076;-73
2021/06/24 07:53:24;;;;;;;2.13;1.13;;;18.50;68.40;;;;;;4711119;30;20139;-75
2021/06/24 07:56:00;;;;;;;2.58;0.82;;;18.50;67.60;;;;;;4705895;30;20056;-74
2021/06/24 07:58:56;;;;;;;3.33;1.05;;;18.60;67.40;;;;;;4732131;30;20064;-74
2021/06/24 08:01:52;;;;;;;3.47;1.33;;;18.70;67.20;;;;;;4710394;30;20091;-74
2021/06/24 08:04:27;;;;;;;3.60;1.30;;;18.70;67.00;;;;;;4718200;30;20142;-74
2021/06/24 08:06:54;;;;;;;2.47;1.02;;;18.70;67.00;;;;;;4720288;30;20053;-74
2021/06/24 08:09:23;;;;;;;1.70;1.00;;;18.70;66.90;;;;;;4725692;30;20457;-74
2021/06/24 08:12:55;;;;;;;2.33;0.90;;;18.80;66.70;;;;;;4721261;30;20041;-75
2021/06/24 08:15:27;;;;;;;2.95;1.85;;;18.90;66.50;;;;;;4710412;30;20057;-75
2021/06/24 08:18:02;;;;;;;2.05;1.40;;;19.00;66.40;;;;;;4717834;30;20053;-74
2021/06/24 08:20:29;;;;;;;1.75;1.00;;;19.10;66.10;;;;;;4685942;30;20048;-74
2021/06/24 08:22:56;;;;;;;4.07;1.42;;;19.10;65.70;;;;;;4736837;30;20044;-74
2021/06/24 08:25:23;;;;;;;2.53;1.20;;;19.10;65.60;;;;;;4717528;30;20040;-74
2021/06/24 08:27:51;;;;;;;3.10;1.50;;;19.20;65.70;;;;;;4708270;30;20060;-72
2021/06/24 08:30:20;;;;;;;2.15;1.17;;;19.20;65.50;;;;;;4710134;30;20049;-73
2021/06/24 08:32:47;;;;;;;3.00;1.52;;;19.20;65.20;;;;;;4715574;30;20069;-75
2021/06/24 08:35:18;;;;;;;3.10;1.30;;;19.30;65.00;;;;;;4725316;30;20102;-74
2021/06/24 08:38:07;;;;;;;2.33;1.40;;;19.30;65.00;;;;;;4719004;30;20538;-71
2021/06/24 08:40:35;;;;;;;4.65;1.95;;;19.30;64.70;;;;;;4733077;30;20055;-74
2021/06/24 08:43:02;;;;;;;4.13;1.30;;;19.20;64.70;;;;;;4735584;30;20059;-73
2021/06/24 08:45:44;;;;;;;2.90;1.38;;;19.10;64.80;;;;;;4709630;30;20048;-76
2021/06/24 08:48:40;;;;;;;3.65;1.40;;;19.20;64.80;;;;;;4702103;30;20060;-73
2021/06/24 08:51:07;;;;;;;3.30;1.50;;;19.30;64.80;;;;;;4708084;30;20053;-72
2021/06/24 08:53:35;;;;;;;2.47;1.00;;;19.30;64.60;;;;;;4734957;30;20045;-74
2021/06/24 08:56:03;;;;;;;2.80;1.10;;;19.30;64.60;;;;;;4721516;30;20184;-73
2021/06/24 08:58:30;;;;;;;2.47;1.30;;;19.40;64.60;;;;;;4704455;30;20045;-74
2021/06/24 09:00:57;;;;;;;4.18;1.50;;;19.40;64.40;;;;;;4716857;30;20048;-74
2021/06/24 09:03:31;;;;;;;2.88;1.33;;;19.40;64.40;;;;;;4720686;30;20055;-74
2021/06/24 09:06:06;;;;;;;5.32;1.67;;;19.40;64.30;;;;;;4715828;30;20091;-74
2021/06/24 09:08:52;;;;;;;3.25;1.20;;;19.30;64.50;;;;;;4718753;30;20064;-74
2021/06/24 09:11:28;;;;;;;2.92;1.48;;;19.40;64.50;;;;;;4717682;30;20445;-74
2021/06/24 09:14:05;;;;;;;2.88;1.63;;;19.40;64.40;;;;;;4735911;30;20044;-73
2021/06/24 09:16:34;;;;;;;4.20;1.67;;;19.40;64.30;;;;;;4736624;30;20071;-73
2021/06/24 09:19:17;;;;;;;3.53;1.48;;;19.40;64.20;;;;;;4726069;30;20057;-73
2021/06/24 09:22:07;;;;;;;2.63;1.70;;;19.40;64.10;;;;;;4734150;30;20040;-72
2021/06/24 09:24:37;;;;;;;3.42;1.40;;;19.40;64.30;;;;;;4731129;30;20090;-74
2021/06/24 09:27:22;;;;;;;2.65;1.13;;;19.40;64.30;;;;;;4718225;30;20337;-72
2021/06/24 09:29:50;;;;;;;2.50;1.40;;;19.40;64.20;;;;;;4730713;30;20061;-73
2021/06/24 09:32:34;;;;;;;3.00;1.10;;;19.40;64.20;;;;;;4726768;30;20048;-72
2021/06/24 09:35:04;;;;;;;4.15;1.40;;;19.40;64.20;;;;;;4730452;30;20489;-72
2021/06/24 09:38:06;;;;;;;2.72;1.20;;;19.40;64.30;;;;;;4733486;30;20560;-72
2021/06/24 09:40:46;;;;;;;3.70;1.20;;;19.20;64.20;;;;;;4734930;30;20098;-71
2021/06/24 09:43:35;;;;;;;3.30;1.52;;;19.20;64.50;;;;;;4739173;30;20052;-72
2021/06/24 09:46:20;;;;;;;4.70;1.75;;;19.20;64.40;;;;;;4708133;30;20049;-73
2021/06/24 09:48:55;;;;;;;4.00;1.80;;;19.10;64.30;;;;;;4704629;30;20478;-72
2021/06/24 09:51:25;;;;;;;3.38;2.28;;;19.00;64.50;;;;;;4725799;30;20067;-73
2021/06/24 09:53:53;;;;;;;2.97;1.58;;;18.90;64.50;;;;;;4737049;30;20485;-73
2021/06/24 09:56:44;;;;;;;3.67;1.90;;;18.80;64.70;;;;;;4721186;30;20044;-72
2021/06/24 09:59:16;;;;;;;2.58;1.38;;;18.80;64.70;;;;;;4734020;30;20098;-72
2021/06/24 10:01:45;;;;;;;4.05;1.75;;;18.70;64.90;;;;;;4726082;30;20045;-72
2021/06/24 10:04:31;;;;;;;3.97;1.92;;;18.70;64.80;;;;;;4731794;30;20087;-72
2021/06/24 10:07:00;;;;;;;4.65;1.80;;;18.80;64.70;;;;;;4733024;30;20056;-72
2021/06/24 10:09:29;;;;;;;3.90;1.80;;;18.80;64.70;;;;;;4742990;30;20155;-72
2021/06/24 10:11:58;;;;;;;6.05;2.00;;;18.80;64.80;;;;;;4737138;30;20090;-72
2021/06/24 10:14:26;;;;;;;4.20;2.10;;;18.70;65.30;;;;;;4722109;30;20052;-72
2021/06/24 10:16:56;;;;;;;2.22;1.25;;;18.70;64.80;;;;;;4738213;30;20044;-71
2021/06/24 10:19:25;;;;;;;2.90;1.50;;;18.80;64.90;;;;;;4723735;30;20048;-71
2021/06/24 10:22:17;;;;;;;2.72;1.52;;;18.80;64.70;;;;;;4705876;30;20049;-71
2021/06/24 10:25:04;;;;;;;3.83;1.20;;;18.90;64.60;;;;;;4726337;30;20115;-72
2021/06/24 10:27:36;;;;;;;3.03;1.38;;;19.00;64.50;;;;;;4732065;30;20064;-71
2021/06/24 10:30:17;;;;;;;2.72;1.55;;;19.10;64.50;;;;;;4732862;30;20118;-71
2021/06/24 10:33:03;;;;;;;3.67;1.10;;;19.20;64.30;;;;;;4712924;30;20099;-72
2021/06/24 10:35:35;;;;;;;2.47;1.00;;;19.20;64.20;;;;;;4731309;30;20052;-72
2021/06/24 10:38:03;;;;;;;2.53;1.42;;;19.30;64.20;;;;;;4720906;30;20083;-72
2021/06/24 10:40:37;;;;;;;1.95;1.30;;;19.30;64.10;;;;;;4732397;30;20104;-72
2021/06/24 10:43:12;;;;;;;2.97;1.48;;;19.40;64.00;;;;;;4730340;30;20053;-71
2021/06/24 10:45:42;;;;;;;2.90;1.73;;;19.50;64.00;;;;;;4732128;30;20045;-72
2021/06/24 10:48:30;;;;;;;3.25;1.67;;;19.50;63.90;;;;;;4718446;30;20136;-72
2021/06/24 10:51:03;;;;;;;2.22;1.38;;;19.60;63.70;;;;;;4732036;30;20052;-72
2021/06/24 10:53:33;;;;;;;3.70;1.50;;;19.60;63.90;;;;;;4718527;30;20106;-75
2021/06/24 10:56:00;;;;;;;2.03;1.17;;;19.50;63.90;;;;;;4707303;30;20053;-74
2021/06/24 10:58:34;;;;;;;3.15;1.85;;;19.50;64.00;;;;;;4720923;30;20109;-74
2021/06/24 11:01:01;;;;;;;2.72;1.58;;;19.50;64.00;;;;;;4714542;30;20053;-74
2021/06/24 11:03:31;;;;;;;2.63;1.35;;;19.50;63.90;;;;;;4720682;30;20076;-74
2021/06/24 11:06:15;;;;;;;2.47;1.55;;;19.60;63.90;;;;;;4722198;30;20052;-74
2021/06/24 11:08:43;;;;;;;3.20;1.60;;;19.60;63.80;;;;;;4718945;30;20056;-74
2021/06/24 11:11:16;;;;;;;4.20;1.50;;;19.60;64.00;;;;;;4733851;30;20075;-74
2021/06/24 11:13:46;;;;;;;3.00;1.30;;;19.50;63.80;;;;;;4736142;30;20090;-74
2021/06/24 11:16:16;;;;;;;3.13;1.33;;;19.60;63.90;;;;;;4728290;30;20075;-74
2021/06/24 11:19:05;;;;;;;3.13;1.67;;;19.60;63.90;;;;;;4728035;30;20099;-74
2021/06/24 11:21:32;;;;;;;4.03;1.50;;;19.60;63.80;;;;;;4730489;30;20053;-74
2021/06/24 11:24:01;;;;;;;2.42;1.40;;;19.60;64.60;;;;;;4717841;30;20588;-74
2021/06/24 11:26:31;;;;;;;2.65;1.30;;;19.60;63.80;;;;;;4727614;30;20057;-75
2021/06/24 11:29:27;;;;;;;2.58;1.73;;;19.60;63.90;;;;;;4717834;30;20090;-74
2021/06/24 11:31:59;;;;;;;2.63;1.85;;;19.60;63.80;;;;;;4732076;30;20114;-74
2021/06/24 11:37:28;;;;;;;2.90;1.50;;;19.50;64.00;;;;;;4716335;30;20606;-74
2021/06/24 11:40:04;;;;;;;1.95;1.17;;;19.50;64.10;;;;;;4721000;30;20048;-75
2021/06/24 11:42:41;;;;;;;3.70;1.80;;;19.50;64.10;;;;;;4723505;30;20051;-75
2021/06/24 11:45:12;;;;;;;2.63;1.52;;;19.50;64.10;;;;;;4723237;30;20044;-74
2021/06/24 11:47:44;;;;;;;2.92;1.70;;;19.50;64.20;;;;;;4716684;30;20044;-74
2021/06/24 12:04:27;;;;;;;3.40;1.75;;;19.40;64.30;;;;;;4717085;30;20057;-73
2021/06/24 12:07:00;;;;;;;3.75;1.80;;;19.40;64.40;;;;;;4737321;30;20047;-74
2021/06/24 12:09:51;;;;;;;4.32;1.80;;;19.50;64.30;;;;;;4727438;30;20079;-74
2021/06/24 12:12:26;;;;;;;3.22;1.70;;;19.60;64.30;;;;;;4728674;30;20398;-73
2021/06/24 12:14:56;;;;;;;5.15;1.80;;;19.70;64.20;;;;;;4718444;30;20114;-73
2021/06/24 12:17:25;;;;;;;2.60;1.83;;;19.60;64.10;;;;;;4736491;30;20114;-73
2021/06/24 12:20:09;;;;;;;2.55;1.50;;;19.70;64.20;;;;;;4732135;30;20083;-75
2021/06/24 12:22:50;;;;;;;3.17;1.60;;;19.80;64.20;;;;;;4727874;30;20057;-75
2021/06/24 12:25:22;;;;;;;2.30;1.58;;;19.70;64.10;;;;;;4713777;30;20364;-77
2021/06/24 12:27:57;;;;;;;4.38;1.50;;;19.70;64.30;;;;;;4695696;30;20046;-77
2021/06/24 12:30:28;;;;;;;4.38;2.05;;;19.70;64.40;;;;;;4712937;30;20114;-73
2021/06/24 12:33:00;;;;;;;2.47;1.52;;;19.60;64.60;;;;;;4712094;30;20052;-80
2021/06/24 12:35:40;;;;;;;3.17;2.03;;;19.60;64.60;;;;;;4705604;30;20067;-74
2021/06/24 12:38:16;;;;;;;2.72;1.80;;;19.60;64.70;;;;;;4713371;30;20056;-74
2021/06/24 12:41:07;;;;;;;3.03;1.67;;;19.60;64.80;;;;;;4729756;30;20052;-73
2021/06/24 12:43:36;;;;;;;2.78;1.75;;;19.70;64.80;;;;;;4728745;30;20138;-73
2021/06/24 12:46:05;;;;;;;3.35;2.00;;;19.80;64.80;;;;;;4713867;30;20049;-73
2021/06/24 12:48:33;;;;;;;3.45;1.88;;;19.80;64.60;;;;;;4722416;30;20064;-73
2021/06/24 12:51:06;;;;;;;3.60;2.20;;;19.90;64.50;;;;;;4714927;30;20048;-74
2021/06/24 12:53:41;;;;;;;4.55;2.60;;;20.00;64.40;;;;;;4717544;30;20048;-74
2021/06/24 12:56:28;;;;;;;2.90;1.77;;;20.10;64.30;;;;;;4735228;30;20040;-74
2021/06/24 12:59:19;;;;;;;3.72;2.42;;;20.30;64.00;;;;;;4712250;30;20506;-74
2021/06/24 13:01:49;;;;;;;2.58;2.10;;;20.40;63.70;;;;;;4712064;30;20053;-74
2021/06/24 13:04:19;;;;;;;3.78;2.10;;;20.40;63.90;;;;;;4729650;30;20127;-73
2021/06/24 13:06:48;;;;;;;2.63;1.73;;;20.50;63.80;;;;;;4728488;30;20049;-74
2021/06/24 13:09:32;;;;;;;3.65;2.10;;;20.60;63.80;;;;;;4732511;30;20077;-75
2021/06/24 13:12:02;;;;;;;3.75;1.85;;;20.60;63.70;;;;;;4719450;30;20079;-75
2021/06/24 13:14:40;;;;;;;3.22;1.80;;;20.60;63.60;;;;;;4703197;30;20080;-74
2021/06/24 13:17:11;;;;;;;3.28;2.15;;;20.70;63.60;;;;;;4726104;30;20044;-75
2021/06/24 13:19:41;;;;;;;5.28;2.33;;;20.70;63.60;;;;;;4716495;30;20052;-74
2021/06/24 13:22:16;;;;;;;4.15;2.40;;;20.70;63.50;;;;;;4715499;30;20069;-75
2021/06/24 13:24:52;;;;;;;4.30;1.92;;;20.70;63.60;;;;;;4727071;30;20044;-75
2021/06/24 13:27:46;;;;;;;5.60;2.47;;;20.60;63.60;;;;;;4704342;30;20044;-75
2021/06/24 13:30:15;;;;;;;3.42;2.00;;;20.60;63.50;;;;;;4712939;30;20053;-74
2021/06/24 13:32:45;;;;;;;3.40;2.08;;;20.60;63.60;;;;;;4723811;30;20040;-75